createdAt,value
2022-09-21T00:02:57.919Z,100.00
2022-09-21T00:08:01.863Z,100.00
2022-09-21T00:13:08.483Z,100.00
2022-09-21T00:18:11.813Z,100.00
2022-09-21T00:23:15.367Z,100.00
2022-09-21T00:28:20.117Z,100.00
2022-09-21T00:33:23.657Z,100.00
2022-09-21T00:38:26.902Z,100.00
2022-09-21T00:43:34.337Z,100.00
2022-09-21T00:48:37.685Z,100.00
2022-09-21T00:53:41.093Z,100.00
2022-09-21T00:58:50.080Z,100.00
2022-09-21T01:03:56.469Z,100.00
2022-09-21T01:09:00.461Z,100.00
2022-09-21T01:14:33.015Z,100.00
2022-09-21T01:19:58.413Z,100.00
2022-09-21T01:25:12.617Z,100.00
2022-09-21T01:30:19.983Z,100.00
2022-09-21T01:35:28.155Z,100.00
2022-09-21T01:40:35.977Z,100.00
2022-09-21T01:45:45.663Z,100.00
2022-09-21T01:50:54.667Z,100.00
2022-09-21T01:56:01.221Z,100.00
2022-09-21T02:01:10.103Z,100.00
2022-09-21T02:06:13.829Z,100.00
2022-09-21T02:11:17.116Z,100.00
2022-09-21T02:16:35.309Z,100.00
2022-09-21T02:21:52.894Z,100.00
2022-09-21T02:27:04.172Z,100.00
2022-09-21T02:32:12.125Z,100.00
2022-09-21T02:37:22.873Z,100.00
2022-09-21T02:42:30.883Z,100.00
2022-09-21T02:47:40.946Z,100.00
2022-09-21T02:52:45.379Z,100.00
2022-09-21T02:57:49.340Z,100.00
2022-09-21T03:02:53.625Z,100.00
2022-09-21T03:07:56.551Z,100.00
2022-09-21T03:12:59.489Z,100.00
2022-09-21T03:18:05.059Z,100.00
2022-09-21T03:23:08.655Z,100.00
2022-09-21T03:28:13.466Z,100.00
2022-09-21T03:33:17.996Z,100.00
2022-09-21T03:38:22.254Z,100.00
2022-09-21T03:43:25.670Z,100.00
2022-09-21T03:48:29.968Z,100.00
2022-09-21T03:53:32.858Z,100.00
2022-09-21T03:58:35.732Z,100.00
2022-09-21T04:03:39.981Z,100.00
2022-09-21T04:08:43.809Z,100.00
2022-09-21T04:13:50.995Z,100.00
2022-09-21T04:18:55.277Z,100.00
2022-09-21T04:23:58.183Z,100.00
2022-09-21T04:29:01.749Z,100.00
2022-09-21T04:34:06.254Z,100.00
2022-09-21T04:39:09.363Z,100.00
2022-09-21T04:44:12.422Z,100.00
2022-09-21T04:49:16.686Z,100.00
2022-09-21T04:54:19.821Z,100.00
2022-09-21T04:59:22.677Z,100.00
2022-09-21T05:04:26.942Z,100.00
2022-09-21T05:09:47.388Z,100.00
2022-09-21T05:14:50.315Z,100.00
2022-09-21T05:19:54.724Z,100.00
2022-09-21T05:24:57.632Z,100.00
2022-09-21T05:30:01.047Z,100.00
2022-09-21T05:35:14.107Z,100.00
2022-09-21T05:40:17.786Z,100.00
2022-09-21T05:45:23.098Z,100.00
2022-09-21T05:50:40.640Z,100.00
2022-09-21T05:55:56.409Z,100.00
2022-09-21T06:01:14.775Z,100.00
2022-09-21T06:06:20.331Z,100.00
2022-09-21T06:11:23.340Z,100.00
2022-09-21T06:16:26.324Z,100.00
2022-09-21T06:21:30.663Z,100.00
2022-09-21T06:26:33.624Z,100.00
2022-09-21T06:31:36.650Z,100.00
2022-09-21T06:36:41.106Z,100.00
2022-09-21T06:41:44.264Z,100.00
2022-09-21T06:46:47.320Z,100.00
2022-09-21T06:51:51.642Z,100.00
2022-09-21T06:56:59.368Z,100.00
2022-09-21T07:02:03.981Z,100.00
2022-09-21T07:07:08.261Z,100.00
2022-09-21T07:12:11.216Z,100.00
2022-09-21T07:17:15.994Z,100.00
2022-09-21T07:22:20.467Z,100.00
2022-09-21T07:27:23.379Z,100.00
2022-09-21T07:32:27.398Z,100.00
2022-09-21T07:37:33.020Z,100.00
2022-09-21T07:42:36.022Z,100.00
2022-09-21T07:47:38.922Z,100.00
2022-09-21T07:52:43.912Z,100.00
2022-09-21T07:58:04.686Z,100.00
2022-09-21T08:03:07.826Z,100.00
2022-09-21T08:08:12.308Z,100.00
2022-09-21T08:13:15.198Z,100.00
2022-09-21T08:18:18.320Z,100.00
2022-09-21T08:23:22.891Z,100.00
2022-09-21T08:28:25.927Z,99.99
2022-09-21T08:33:29.768Z,100.00
2022-09-21T08:38:39.137Z,97.70
2022-09-21T08:43:44.759Z,97.37
2022-09-21T08:48:51.898Z,95.84
2022-09-21T08:54:00.740Z,97.36
2022-09-21T08:59:03.702Z,97.30
2022-09-21T09:04:27.871Z,94.35
2022-09-21T09:09:51.802Z,93.65
2022-09-21T09:15:10.121Z,88.35
2022-09-21T09:20:18.339Z,86.70
2022-09-21T09:25:25.421Z,85.51
2022-09-21T09:30:34.871Z,84.47
2022-09-21T09:35:42.535Z,84.27
2022-09-21T09:41:09.612Z,82.40
2022-09-21T09:46:21.307Z,81.38
2022-09-21T09:51:27.010Z,79.47
2022-09-21T09:56:32.866Z,78.84
2022-09-21T10:01:42.781Z,75.29
2022-09-21T10:06:47.130Z,75.54
2022-09-21T10:11:53.086Z,67.85
2022-09-21T10:16:57.371Z,72.98
2022-09-21T10:22:02.390Z,68.13
2022-09-21T10:27:12.803Z,72.90
2022-09-21T10:32:24.891Z,68.31
2022-09-21T10:37:30.023Z,69.65
2022-09-21T10:42:37.546Z,65.21
2022-09-21T10:47:43.347Z,63.54
2022-09-21T10:52:47.400Z,63.04
2022-09-21T10:57:53.012Z,64.76
2022-09-21T11:02:56.837Z,65.43
2022-09-21T11:08:05.250Z,61.69
2022-09-21T11:13:21.552Z,61.93
2022-09-21T11:18:35.615Z,61.43
2022-09-21T11:23:48.588Z,54.00
2022-09-21T11:29:02.402Z,63.34
2022-09-21T11:34:19.388Z,59.82
2022-09-21T11:39:33.391Z,63.48
2022-09-21T11:44:50.995Z,58.20
2022-09-21T11:50:29.691Z,57.28
2022-09-21T11:55:56.237Z,58.72
2022-09-21T12:01:07.368Z,52.68
2022-09-21T12:06:25.163Z,61.71
2022-09-21T12:11:38.234Z,63.14
2022-09-21T12:16:50.029Z,60.04
2022-09-21T12:21:59.985Z,57.44
2022-09-21T12:27:09.770Z,60.43
2022-09-21T12:32:26.372Z,54.45
2022-09-21T12:37:34.794Z,60.08
2022-09-21T12:42:42.948Z,61.99
2022-09-21T12:47:53.940Z,64.48
2022-09-21T12:52:58.483Z,63.68
2022-09-21T12:58:15.940Z,61.21
2022-09-21T13:03:27.096Z,61.53
2022-09-21T13:08:36.757Z,66.16
2022-09-21T13:13:45.447Z,66.65
2022-09-21T13:18:57.293Z,63.75
2022-09-21T13:24:02.705Z,63.16
2022-09-21T13:29:40.245Z,65.48
2022-09-21T13:34:45.505Z,63.04
2022-09-21T13:39:56.318Z,62.97
2022-09-21T13:45:00.521Z,63.10
2022-09-21T13:50:13.702Z,63.52
2022-09-21T13:55:28.539Z,58.34
2022-09-21T14:00:43.114Z,59.15
2022-09-21T14:05:50.118Z,65.28
2022-09-21T14:10:57.335Z,63.52
2022-09-21T14:16:48.059Z,45.38
2022-09-21T14:22:26.676Z,49.04
2022-09-21T14:27:34.032Z,54.24
2022-09-21T14:32:44.576Z,57.61
2022-09-21T14:37:52.183Z,57.07
2022-09-21T14:42:58.985Z,50.84
2022-09-21T14:48:11.656Z,56.46
2022-09-21T14:53:39.421Z,57.57
2022-09-21T14:58:57.243Z,58.60
2022-09-21T15:04:27.315Z,52.79
2022-09-21T15:10:02.858Z,55.53
2022-09-21T15:15:30.900Z,62.35
2022-09-21T15:20:33.994Z,64.32
2022-09-21T15:25:38.014Z,58.43
2022-09-21T15:30:46.125Z,60.80
2022-09-21T15:35:49.668Z,61.42
2022-09-21T15:40:52.809Z,55.70
2022-09-21T15:46:00.909Z,57.17
2022-09-21T15:51:09.434Z,56.70
2022-09-21T15:56:20.848Z,54.60
2022-09-21T16:01:25.749Z,56.42
2022-09-21T16:06:36.552Z,58.59
2022-09-21T16:11:39.848Z,59.40
2022-09-21T16:17:21.145Z,59.41
2022-09-21T16:22:29.346Z,57.47
2022-09-21T16:27:33.964Z,57.99
2022-09-21T16:32:38.615Z,59.38
2022-09-21T16:37:42.220Z,56.66
2022-09-21T16:42:46.117Z,59.56
2022-09-21T16:47:50.876Z,58.88
2022-09-21T16:52:53.848Z,61.17
2022-09-21T16:57:57.586Z,61.38
2022-09-21T17:03:02.406Z,63.64
2022-09-21T17:08:05.876Z,59.21
2022-09-21T17:13:09.272Z,63.97
2022-09-21T17:18:14.049Z,64.66
2022-09-21T17:23:17.321Z,67.17
2022-09-21T17:28:26.136Z,66.10
2022-09-21T17:33:30.972Z,69.20
2022-09-21T17:38:35.577Z,70.20
2022-09-21T17:43:50.103Z,71.16
2022-09-21T17:48:55.164Z,71.81
2022-09-21T17:53:58.494Z,72.95
2022-09-21T17:59:03.517Z,73.38
2022-09-21T18:04:09.834Z,74.44
2022-09-21T18:09:13.722Z,74.76
2022-09-21T18:14:29.014Z,75.16
2022-09-21T18:19:44.214Z,76.24
2022-09-21T18:24:47.903Z,77.02
2022-09-21T18:29:52.050Z,77.92
2022-09-21T18:35:14.523Z,78.12
2022-09-21T18:40:29.286Z,78.74
2022-09-21T18:45:38.878Z,79.19
2022-09-21T18:50:51.391Z,80.03
2022-09-21T18:55:55.025Z,80.70
2022-09-21T19:00:58.565Z,81.46
2022-09-21T19:06:19.146Z,81.87
2022-09-21T19:11:31.799Z,82.37
2022-09-21T19:16:40.272Z,82.40
2022-09-21T19:21:50.099Z,82.75
2022-09-21T19:27:06.065Z,83.23
2022-09-21T19:32:15.918Z,84.28
2022-09-21T19:37:20.522Z,84.60
2022-09-21T19:42:30.277Z,85.04
2022-09-21T19:47:39.865Z,85.50
2022-09-21T19:52:45.332Z,85.63
2022-09-21T19:58:06.332Z,85.78
2022-09-21T20:03:14.215Z,86.29
2022-09-21T20:08:27.631Z,86.87
2022-09-21T20:13:46.485Z,87.11
2022-09-21T20:18:55.443Z,88.00
2022-09-21T20:24:02.520Z,87.48
2022-09-21T20:29:06.067Z,88.13
2022-09-21T20:34:10.089Z,88.53
2022-09-21T20:39:14.427Z,88.55
2022-09-21T20:44:17.558Z,88.66
2022-09-21T20:49:20.610Z,88.75
2022-09-21T20:54:25.752Z,88.69
2022-09-21T20:59:28.745Z,89.24
2022-09-21T21:04:32.469Z,89.75
2022-09-21T21:09:36.789Z,89.71
2022-09-21T21:14:39.738Z,90.27
2022-09-21T21:19:42.872Z,90.30
2022-09-21T21:24:48.081Z,90.34
2022-09-21T21:29:54.079Z,90.78
2022-09-21T21:34:57.054Z,90.92
2022-09-21T21:40:01.540Z,91.58
2022-09-21T21:45:05.524Z,91.34
2022-09-21T21:50:09.299Z,91.08
2022-09-21T21:55:14.280Z,90.55
2022-09-21T22:00:17.258Z,91.21
2022-09-21T22:05:20.181Z,90.88
2022-09-21T22:10:24.714Z,91.21
2022-09-21T22:15:28.488Z,91.33
2022-09-21T22:20:32.182Z,90.76
2022-09-21T22:25:36.432Z,91.71
2022-09-21T22:30:39.710Z,91.73
2022-09-21T22:35:42.726Z,91.60
2022-09-21T22:40:47.096Z,91.96
2022-09-21T22:45:50.078Z,93.14
2022-09-21T22:50:53.445Z,93.15
2022-09-21T22:56:07.159Z,93.71
2022-09-21T23:01:12.624Z,95.42
2022-09-21T23:06:17.936Z,96.35
2022-09-21T23:11:24.112Z,96.94
2022-09-21T23:16:29.210Z,96.38
2022-09-21T23:21:32.604Z,94.56
2022-09-21T23:26:36.893Z,93.75
2022-09-21T23:31:44.685Z,93.90
2022-09-21T23:36:48.221Z,93.70
2022-09-21T23:41:52.585Z,93.96
2022-09-21T23:46:55.452Z,94.31
2022-09-21T23:51:58.429Z,94.91
2022-09-21T23:57:02.671Z,95.59
